createdAt,value
2018-05-12T00:01:27.559Z,77.11
2018-05-12T00:03:55.607Z,77.51
2018-05-12T00:06:23.708Z,77.17
2018-05-12T00:08:51.854Z,77.02
2018-05-12T00:11:19.808Z,77.18
2018-05-12T00:13:47.991Z,77.08
2018-05-12T00:16:16.540Z,77.35
2018-05-12T00:18:44.539Z,77.66
2018-05-12T00:21:12.465Z,77.33
2018-05-12T00:23:40.440Z,77.39
2018-05-12T00:26:08.743Z,77.24
2018-05-12T00:28:36.672Z,77.87
2018-05-12T00:31:04.604Z,77.84
2018-05-12T00:33:32.562Z,78.15
2018-05-12T00:36:00.464Z,77.87
2018-05-12T00:38:28.400Z,76.75
2018-05-12T00:40:56.312Z,76.87
2018-05-12T00:43:24.339Z,76.34
2018-05-12T00:45:53.294Z,75.27
2018-05-12T00:48:21.259Z,75.65
2018-05-12T00:50:49.664Z,76.33
2018-05-12T00:53:18.088Z,78.11
2018-05-12T00:55:46.022Z,78.11
2018-05-12T00:58:14.052Z,78.88
2018-05-12T01:00:42.111Z,79.10
2018-05-12T01:03:10.052Z,79.21
2018-05-12T01:05:37.978Z,78.40
2018-05-12T01:08:05.911Z,77.34
2018-05-12T01:10:33.890Z,77.51
2018-05-12T01:13:01.827Z,77.68
2018-05-12T01:15:29.827Z,78.34
2018-05-12T01:17:57.767Z,79.08
2018-05-12T01:20:25.715Z,79.50
2018-05-12T01:22:54.261Z,79.17
2018-05-12T01:25:22.177Z,79.69
2018-05-12T01:27:50.114Z,79.82
2018-05-12T01:30:18.056Z,80.00
2018-05-12T01:32:45.994Z,78.62
2018-05-12T01:35:13.940Z,78.01
2018-05-12T01:37:42.228Z,78.00
2018-05-12T01:40:10.196Z,77.82
2018-05-12T01:42:38.362Z,78.67
2018-05-12T01:45:06.426Z,79.36
2018-05-12T01:47:34.319Z,78.68
2018-05-12T01:50:02.287Z,78.32
2018-05-12T01:52:30.215Z,77.53
2018-05-12T01:54:58.195Z,77.19
2018-05-12T01:57:26.148Z,77.27
2018-05-12T01:59:54.076Z,77.23
2018-05-12T02:02:22.096Z,78.27
2018-05-12T02:04:50.086Z,78.86
2018-05-12T02:07:18.038Z,79.29
2018-05-12T02:09:45.952Z,79.33
2018-05-12T02:12:13.896Z,79.25
2018-05-12T02:14:41.829Z,79.55
2018-05-12T02:17:09.797Z,79.55
2018-05-12T02:19:37.765Z,80.33
2018-05-12T02:22:05.750Z,79.74
2018-05-12T02:24:33.685Z,78.93
2018-05-12T02:27:01.655Z,77.63
2018-05-12T02:29:29.584Z,78.01
2018-05-12T02:31:57.554Z,78.47
2018-05-12T02:34:25.495Z,78.26
2018-05-12T02:36:53.429Z,78.17
2018-05-12T02:39:21.347Z,78.51
2018-05-12T02:41:49.398Z,78.77
2018-05-12T02:44:17.391Z,78.08
2018-05-12T02:46:45.324Z,78.25
2018-05-12T02:49:13.281Z,78.69
2018-05-12T02:51:41.217Z,78.62
2018-05-12T02:54:09.161Z,77.51
2018-05-12T02:56:37.207Z,78.69
2018-05-12T02:59:05.102Z,79.62
2018-05-12T03:01:33.053Z,80.03
2018-05-12T03:04:01.149Z,79.96
2018-05-12T03:06:29.081Z,79.89
2018-05-12T03:08:57.015Z,79.21
2018-05-12T03:11:25.030Z,79.08
2018-05-12T03:13:53.072Z,78.66
2018-05-12T03:16:20.928Z,78.69
2018-05-12T03:18:48.861Z,79.42
2018-05-12T03:21:16.871Z,80.77
2018-05-12T03:23:45.049Z,80.83
2018-05-12T03:26:12.972Z,81.32
2018-05-12T03:28:40.884Z,81.20
2018-05-12T03:31:08.903Z,81.94
2018-05-12T03:33:36.841Z,83.09
2018-05-12T03:36:04.759Z,83.31
2018-05-12T03:38:32.703Z,83.61
2018-05-12T03:41:00.725Z,82.63
2018-05-12T03:43:29.025Z,83.15
2018-05-12T03:45:56.959Z,83.22
2018-05-12T03:48:24.929Z,83.07
2018-05-12T03:50:53.033Z,83.35
2018-05-12T03:53:21.016Z,83.28
2018-05-12T03:55:48.997Z,83.67
2018-05-12T03:58:16.948Z,83.33
2018-05-12T04:00:45.115Z,83.01
2018-05-12T04:03:13.065Z,83.24
2018-05-12T04:05:52.806Z,83.26
2018-05-12T04:08:32.521Z,84.52
2018-05-12T04:14:01.778Z,83.84
2018-05-12T04:16:29.774Z,84.25
2018-05-12T04:18:57.699Z,84.31
2018-05-12T04:21:25.679Z,84.49
2018-05-12T04:23:54.456Z,85.25
2018-05-12T04:26:22.371Z,85.26
2018-05-12T04:28:50.320Z,84.04
2018-05-12T04:31:18.748Z,84.45
2018-05-12T04:33:46.671Z,84.77
2018-05-12T04:36:14.628Z,84.37
2018-05-12T04:38:42.591Z,84.55
2018-05-12T04:41:10.491Z,84.07
2018-05-12T04:43:38.407Z,83.91
2018-05-12T04:46:06.355Z,84.36
2018-05-12T04:48:34.355Z,84.35
2018-05-12T04:51:02.303Z,83.87
2018-05-12T04:53:30.424Z,84.05
2018-05-12T04:55:58.382Z,83.97
2018-05-12T04:58:26.306Z,83.34
2018-05-12T05:00:54.253Z,83.03
2018-05-12T05:03:22.188Z,82.45
2018-05-12T05:05:50.128Z,81.20
2018-05-12T05:08:18.115Z,81.55
2018-05-12T05:10:46.217Z,79.91
2018-05-12T05:13:14.139Z,79.15
2018-05-12T05:15:42.093Z,78.70
2018-05-12T05:18:10.004Z,78.40
2018-05-12T05:20:38.028Z,79.18
2018-05-12T05:23:05.959Z,79.43
2018-05-12T05:25:33.885Z,79.72
2018-05-12T05:28:01.883Z,80.08
2018-05-12T05:30:29.812Z,79.57
2018-05-12T05:32:57.755Z,79.11
2018-05-12T05:35:25.666Z,79.56
2018-05-12T05:37:53.654Z,78.79
2018-05-12T05:40:21.653Z,78.18
2018-05-12T05:42:49.564Z,78.88
2018-05-12T05:45:17.561Z,79.86
2018-05-12T05:47:45.484Z,79.26
2018-05-12T05:50:13.547Z,78.72
2018-05-12T05:52:41.566Z,79.11
2018-05-12T05:55:09.495Z,79.45
2018-05-12T05:57:37.422Z,79.74
2018-05-12T06:00:05.346Z,79.28
2018-05-12T06:02:33.285Z,79.28
2018-05-12T06:05:01.248Z,79.48
2018-05-12T06:07:29.159Z,78.90
2018-05-12T06:09:57.106Z,79.26
2018-05-12T06:12:25.119Z,80.07
2018-05-12T06:14:53.420Z,81.41
2018-05-12T06:17:21.381Z,81.74
2018-05-12T06:19:49.335Z,81.24
2018-05-12T06:22:17.433Z,81.51
2018-05-12T06:24:45.427Z,81.45
2018-05-12T06:27:13.368Z,81.51
2018-05-12T06:29:41.341Z,80.80
2018-05-12T06:32:09.263Z,80.53
2018-05-12T06:34:37.232Z,80.04
2018-05-12T06:37:05.244Z,79.22
2018-05-12T06:39:33.270Z,79.62
2018-05-12T06:42:01.192Z,79.18
2018-05-12T06:44:29.127Z,77.89
2018-05-12T06:46:57.137Z,77.83
2018-05-12T06:49:25.077Z,77.12
2018-05-12T06:51:53.026Z,75.24
2018-05-12T06:54:21.087Z,74.83
2018-05-12T06:56:49.107Z,73.75
2018-05-12T06:59:17.075Z,72.29
2018-05-12T07:01:45.000Z,71.83
2018-05-12T07:04:12.938Z,69.81
2018-05-12T07:06:40.842Z,69.69
2018-05-12T07:09:08.809Z,66.39
2018-05-12T07:11:36.823Z,64.83
2018-05-12T07:14:04.933Z,63.15
2018-05-12T07:16:32.937Z,62.76
2018-05-12T07:19:00.839Z,61.85
2018-05-12T07:21:28.777Z,64.03
2018-05-12T07:23:56.800Z,64.14
2018-05-12T07:26:24.802Z,63.91
2018-05-12T07:28:52.740Z,60.69
2018-05-12T07:31:20.805Z,60.49
2018-05-12T07:33:49.029Z,58.12
2018-05-12T07:36:16.952Z,58.61
2018-05-12T07:38:44.936Z,59.41
2018-05-12T07:41:12.919Z,61.12
2018-05-12T07:43:40.853Z,61.49
2018-05-12T07:46:08.895Z,62.08
2018-05-12T07:48:36.834Z,62.28
2018-05-12T07:51:04.808Z,63.11
2018-05-12T07:53:32.729Z,62.88
2018-05-12T07:56:00.782Z,64.57
2018-05-12T07:58:28.696Z,64.55
2018-05-12T08:00:56.665Z,62.73
2018-05-12T08:03:24.647Z,62.44
2018-05-12T08:05:52.563Z,58.83
2018-05-12T08:08:20.507Z,57.54
2018-05-12T08:10:48.482Z,53.91
2018-05-12T08:13:16.406Z,53.94
2018-05-12T08:15:44.309Z,55.95
2018-05-12T08:18:12.244Z,56.58
2018-05-12T08:20:40.145Z,58.68
2018-05-12T08:23:08.114Z,57.63
2018-05-12T08:25:36.171Z,58.61
2018-05-12T08:28:04.091Z,59.29
2018-05-12T08:30:32.028Z,59.01
2018-05-12T08:32:59.964Z,59.68
2018-05-12T08:35:27.943Z,59.40
2018-05-12T08:37:55.891Z,59.36
2018-05-12T08:40:24.471Z,57.03
2018-05-12T08:42:52.319Z,55.10
2018-05-12T08:45:20.241Z,51.61
2018-05-12T08:47:48.204Z,51.82
2018-05-12T08:50:16.661Z,52.66
2018-05-12T08:52:44.570Z,54.19
2018-05-12T08:55:12.553Z,55.43
2018-05-12T08:57:40.414Z,55.43
2018-05-12T09:00:08.509Z,57.00
2018-05-12T09:02:36.423Z,57.23
2018-05-12T09:05:04.443Z,56.64
2018-05-12T09:07:33.028Z,55.87
2018-05-12T09:10:00.958Z,52.75
2018-05-12T09:12:29.308Z,52.26
2018-05-12T09:14:57.307Z,50.91
2018-05-12T09:17:25.274Z,49.50
2018-05-12T09:19:53.242Z,47.76
2018-05-12T09:22:21.214Z,47.58
2018-05-12T09:24:49.109Z,48.31
2018-05-12T09:27:17.090Z,46.72
2018-05-12T09:29:45.123Z,47.11
2018-05-12T09:32:13.025Z,46.47
2018-05-12T09:34:40.940Z,46.34
2018-05-12T09:37:08.930Z,47.05
2018-05-12T09:39:37.177Z,45.44
2018-05-12T09:42:05.103Z,47.52
2018-05-12T09:44:33.011Z,48.72
2018-05-12T09:47:00.934Z,49.89
2018-05-12T09:49:28.843Z,48.70
2018-05-12T09:51:56.772Z,46.70
2018-05-12T09:54:24.685Z,46.01
2018-05-12T09:56:52.591Z,45.38
2018-05-12T09:59:20.608Z,42.78
2018-05-12T10:01:48.536Z,42.10
2018-05-12T10:04:16.568Z,41.33
2018-05-12T10:06:44.573Z,41.30
2018-05-12T10:09:12.479Z,40.11
2018-05-12T10:11:41.212Z,39.28
2018-05-12T10:14:09.119Z,39.37
2018-05-12T10:16:37.310Z,38.84
2018-05-12T10:19:05.235Z,38.69
2018-05-12T10:21:33.594Z,39.08
2018-05-12T10:24:01.597Z,38.27
2018-05-12T10:26:29.534Z,38.36
2018-05-12T10:28:57.448Z,38.56
2018-05-12T10:31:25.402Z,40.62
2018-05-12T10:33:53.401Z,42.17
2018-05-12T10:36:21.324Z,42.23
2018-05-12T10:38:49.658Z,41.88
2018-05-12T10:41:17.669Z,41.00
2018-05-12T10:43:45.621Z,39.78
2018-05-12T10:46:13.631Z,39.22
2018-05-12T10:48:41.628Z,39.30
2018-05-12T10:51:09.522Z,41.38
2018-05-12T10:53:37.634Z,42.68
2018-05-12T10:56:05.533Z,43.56
2018-05-12T10:58:33.470Z,44.69
2018-05-12T11:01:01.399Z,45.13
2018-05-12T11:03:29.299Z,45.51
2018-05-12T11:05:57.304Z,47.87
2018-05-12T11:08:25.252Z,48.74
2018-05-12T11:10:53.156Z,48.20
2018-05-12T11:13:21.149Z,48.47
2018-05-12T11:15:49.177Z,50.00
2018-05-12T11:18:17.087Z,49.27
2018-05-12T11:20:45.014Z,49.29
2018-05-12T11:23:12.903Z,50.07
2018-05-12T11:25:40.860Z,50.05
2018-05-12T11:28:08.787Z,50.16
2018-05-12T11:30:36.803Z,50.76
2018-05-12T11:33:04.727Z,51.16
2018-05-12T11:35:32.643Z,51.80
2018-05-12T11:38:01.374Z,52.66
2018-05-12T11:40:29.287Z,53.17
2018-05-12T11:42:57.184Z,53.93
2018-05-12T11:45:25.095Z,53.52
2018-05-12T11:47:52.992Z,53.36
2018-05-12T11:50:21.135Z,52.91
2018-05-12T11:52:49.027Z,52.53
2018-05-12T11:55:16.929Z,53.17
2018-05-12T11:57:44.908Z,53.41
2018-05-12T12:00:12.807Z,53.44
2018-05-12T12:02:40.729Z,51.53
2018-05-12T12:05:08.633Z,49.95
2018-05-12T12:07:36.580Z,49.10
2018-05-12T12:10:04.484Z,47.54
2018-05-12T12:12:32.535Z,46.08
2018-05-12T12:15:00.475Z,44.47
2018-05-12T12:17:28.403Z,43.15
2018-05-12T12:19:56.368Z,44.54
2018-05-12T12:22:24.253Z,45.83
2018-05-12T12:24:52.200Z,46.67
2018-05-12T12:27:20.111Z,47.58
2018-05-12T12:29:48.235Z,48.50
2018-05-12T12:32:16.195Z,48.51
2018-05-12T12:34:44.225Z,47.70
2018-05-12T12:37:12.159Z,45.64
2018-05-12T12:39:40.092Z,46.39
2018-05-12T12:42:07.998Z,47.28
2018-05-12T12:44:35.959Z,47.34
2018-05-12T12:47:03.895Z,48.80
2018-05-12T12:49:31.803Z,50.05
2018-05-12T12:51:59.763Z,49.82
2018-05-12T12:54:27.680Z,48.44
2018-05-12T12:56:55.565Z,47.87
2018-05-12T12:59:23.588Z,47.05
2018-05-12T13:01:51.817Z,46.83
2018-05-12T13:04:19.706Z,47.57
2018-05-12T13:06:47.608Z,45.11
2018-05-12T13:09:15.719Z,45.23
2018-05-12T13:11:43.864Z,45.39
2018-05-12T13:14:11.747Z,45.70
2018-05-12T13:16:39.757Z,45.16
2018-05-12T13:19:07.689Z,44.43
2018-05-12T13:21:35.863Z,43.33
2018-05-12T13:24:03.774Z,44.40
2018-05-12T13:26:31.658Z,47.37
2018-05-12T13:28:59.577Z,47.78
2018-05-12T13:31:27.546Z,48.02
2018-05-12T13:33:55.531Z,47.38
2018-05-12T13:36:23.443Z,46.97
2018-05-12T13:38:51.335Z,46.02
2018-05-12T13:41:19.252Z,47.40
2018-05-12T13:43:47.194Z,47.54
2018-05-12T13:46:15.103Z,46.79
2018-05-12T13:48:43.114Z,46.37
2018-05-12T13:51:11.017Z,46.89
2018-05-12T13:53:38.914Z,46.15
2018-05-12T13:56:06.862Z,45.51
2018-05-12T13:58:34.788Z,45.21
2018-05-12T14:01:02.691Z,44.50
2018-05-12T14:03:30.616Z,45.17
2018-05-12T14:05:58.543Z,44.27
2018-05-12T14:08:26.543Z,44.51
2018-05-12T14:10:54.452Z,44.46
2018-05-12T14:13:22.590Z,45.68
2018-05-12T14:15:50.639Z,45.16
2018-05-12T14:18:18.719Z,45.33
2018-05-12T14:20:47.077Z,44.78
2018-05-12T14:23:14.971Z,44.86
2018-05-12T14:25:43.009Z,45.90
2018-05-12T14:28:10.923Z,45.43
2018-05-12T14:30:38.830Z,44.85
2018-05-12T14:33:06.755Z,45.60
2018-05-12T14:35:34.819Z,45.61
2018-05-12T14:38:02.756Z,45.99
2018-05-12T14:40:30.659Z,46.05
2018-05-12T14:42:58.590Z,45.81
2018-05-12T14:45:26.490Z,46.44
2018-05-12T14:47:54.427Z,46.47
2018-05-12T14:50:22.311Z,45.71
2018-05-12T14:52:50.209Z,44.40
2018-05-12T14:55:18.123Z,45.30
2018-05-12T14:57:46.031Z,46.41
2018-05-12T15:00:13.977Z,46.83
2018-05-12T15:02:41.879Z,46.19
2018-05-12T15:05:10.287Z,47.39
2018-05-12T15:07:38.264Z,46.09
2018-05-12T15:10:06.178Z,47.09
2018-05-12T15:12:34.078Z,48.29
2018-05-12T15:15:02.000Z,48.09
2018-05-12T15:17:29.906Z,48.28
2018-05-12T15:19:57.875Z,48.06
2018-05-12T15:22:25.971Z,47.74
2018-05-12T15:24:53.894Z,48.00
2018-05-12T15:27:21.787Z,48.95
2018-05-12T15:29:49.703Z,49.19
2018-05-12T15:32:17.644Z,49.70
2018-05-12T15:34:45.567Z,49.60
2018-05-12T15:37:13.468Z,49.82
2018-05-12T15:39:41.391Z,49.70
2018-05-12T15:42:09.348Z,49.76
2018-05-12T15:44:37.291Z,50.80
2018-05-12T15:47:05.241Z,50.66
2018-05-12T15:49:33.102Z,50.66
2018-05-12T15:52:01.027Z,51.35
2018-05-12T15:54:28.954Z,51.51
2018-05-12T15:56:56.970Z,51.20
2018-05-12T15:59:24.860Z,51.82
2018-05-12T16:01:52.768Z,52.40
2018-05-12T16:04:20.729Z,53.14
2018-05-12T16:06:48.788Z,53.07
2018-05-12T16:09:16.802Z,52.56
2018-05-12T16:11:44.703Z,51.56
2018-05-12T16:14:12.644Z,52.64
2018-05-12T16:16:40.569Z,52.94
2018-05-12T16:19:08.485Z,52.94
2018-05-12T16:21:36.373Z,54.00
2018-05-12T16:24:04.312Z,53.50
2018-05-12T16:26:32.447Z,53.38
2018-05-12T16:29:00.367Z,54.49
2018-05-12T16:31:28.342Z,55.04
2018-05-12T16:33:56.214Z,54.23
2018-05-12T16:36:24.269Z,53.77
2018-05-12T16:38:52.223Z,53.37
2018-05-12T16:41:20.157Z,53.40
2018-05-12T16:43:48.105Z,53.90
2018-05-12T16:46:16.029Z,55.07
2018-05-12T16:48:43.949Z,55.05
2018-05-12T16:51:11.942Z,55.94
2018-05-12T16:53:39.799Z,56.29
2018-05-12T16:56:07.833Z,56.80
2018-05-12T16:58:35.807Z,57.82
2018-05-12T17:01:03.807Z,58.07
2018-05-12T17:03:31.772Z,58.14
2018-05-12T17:05:59.667Z,58.68
2018-05-12T17:08:27.587Z,58.01
2018-05-12T17:10:55.495Z,58.18
2018-05-12T17:13:23.533Z,57.74
2018-05-12T17:15:51.351Z,58.05
2018-05-12T17:18:19.282Z,58.38
2018-05-12T17:20:47.205Z,58.22
2018-05-12T17:23:15.109Z,57.90
2018-05-12T17:25:43.808Z,58.82
2018-05-12T17:28:11.766Z,59.28
2018-05-12T17:30:39.682Z,58.26
2018-05-12T17:33:07.606Z,58.74
2018-05-12T17:35:35.513Z,59.25
2018-05-12T17:38:03.483Z,59.05
2018-05-12T17:40:31.421Z,59.44
2018-05-12T17:42:59.360Z,59.06
2018-05-12T17:45:27.351Z,59.21
2018-05-12T17:47:55.251Z,59.49
2018-05-12T17:50:23.299Z,59.43
2018-05-12T17:52:51.843Z,59.57
2018-05-12T17:55:19.747Z,59.51
2018-05-12T17:57:47.644Z,60.28
2018-05-12T18:00:15.551Z,60.25
2018-05-12T18:02:43.483Z,60.12
2018-05-12T18:05:11.425Z,60.88
2018-05-12T18:07:39.332Z,61.50
2018-05-12T18:10:07.550Z,62.04
2018-05-12T18:12:35.498Z,61.76
2018-05-12T18:15:03.485Z,62.02
2018-05-12T18:17:31.389Z,62.43
2018-05-12T18:19:59.335Z,62.46
2018-05-12T18:22:28.231Z,63.18
2018-05-12T18:24:56.663Z,63.31
2018-05-12T18:27:24.621Z,63.98
2018-05-12T18:29:52.541Z,64.76
2018-05-12T18:32:20.996Z,66.01
2018-05-12T18:34:48.931Z,65.53
2018-05-12T18:37:16.853Z,66.35
2018-05-12T18:39:44.856Z,66.26
2018-05-12T18:42:12.919Z,66.31
2018-05-12T18:44:40.912Z,67.09
2018-05-12T18:47:08.844Z,67.44
2018-05-12T18:49:36.847Z,68.33
2018-05-12T18:52:04.793Z,68.57
2018-05-12T18:54:32.731Z,68.47
2018-05-12T18:57:00.639Z,68.50
2018-05-12T18:59:28.576Z,68.97
2018-05-12T19:01:56.471Z,68.94
2018-05-12T19:04:25.359Z,69.07
2018-05-12T19:06:53.299Z,69.74
2018-05-12T19:09:21.866Z,69.31
2018-05-12T19:11:49.795Z,70.12
2018-05-12T19:14:17.701Z,70.98
2018-05-12T19:16:45.643Z,70.87
2018-05-12T19:19:13.603Z,71.34
2018-05-12T19:21:41.550Z,71.17
2018-05-12T19:24:09.488Z,71.21
2018-05-12T19:26:37.471Z,72.05
2018-05-12T19:29:05.507Z,72.96
2018-05-12T19:31:34.421Z,73.27
2018-05-12T19:34:02.394Z,74.04
2018-05-12T19:36:30.413Z,73.29
2018-05-12T19:38:58.313Z,72.89
2018-05-12T19:41:26.253Z,73.68
2018-05-12T19:43:54.216Z,74.23
2018-05-12T19:46:22.148Z,75.34
2018-05-12T19:48:50.067Z,75.44
2018-05-12T19:51:18.015Z,75.46
2018-05-12T19:53:46.022Z,75.60
2018-05-12T19:56:13.999Z,75.49
2018-05-12T19:58:41.947Z,75.56
2018-05-12T20:01:09.914Z,76.03
2018-05-12T20:03:38.042Z,76.06
2018-05-12T20:06:05.931Z,75.91
2018-05-12T20:08:33.845Z,75.35
2018-05-12T20:11:02.389Z,75.31
2018-05-12T20:13:30.321Z,75.54
2018-05-12T20:15:58.429Z,75.54
2018-05-12T20:18:26.272Z,75.28
2018-05-12T20:20:54.191Z,76.17
2018-05-12T20:23:22.769Z,75.10
2018-05-12T20:25:50.692Z,75.63
2018-05-12T20:28:18.705Z,76.16
2018-05-12T20:30:46.653Z,76.69
2018-05-12T20:33:14.600Z,75.72
2018-05-12T20:35:42.515Z,74.88
2018-05-12T20:38:10.433Z,75.15
2018-05-12T20:40:38.351Z,76.11
2018-05-12T20:43:06.314Z,76.34
2018-05-12T20:45:34.236Z,76.21
2018-05-12T20:48:02.177Z,77.15
2018-05-12T20:50:30.115Z,76.79
2018-05-12T20:52:58.091Z,76.31
2018-05-12T20:55:26.111Z,76.44
2018-05-12T20:57:54.044Z,76.45
2018-05-12T21:00:22.014Z,77.10
2018-05-12T21:02:49.918Z,76.66
2018-05-12T21:05:17.853Z,76.66
2018-05-12T21:07:45.775Z,76.32
2018-05-12T21:10:13.699Z,76.29
2018-05-12T21:12:41.623Z,76.33
2018-05-12T21:15:09.613Z,76.56
2018-05-12T21:17:37.519Z,76.77
2018-05-12T21:20:05.446Z,76.80
2018-05-12T21:22:33.460Z,77.20
2018-05-12T21:25:01.444Z,76.75
2018-05-12T21:27:29.330Z,76.37
2018-05-12T21:29:57.264Z,76.87
2018-05-12T21:32:25.279Z,76.78
2018-05-12T21:34:53.189Z,77.67
2018-05-12T21:37:21.158Z,77.60
2018-05-12T21:39:49.096Z,77.50
2018-05-12T21:42:17.123Z,77.34
2018-05-12T21:44:45.053Z,77.55
2018-05-12T21:47:13.108Z,77.90
2018-05-12T21:49:41.004Z,77.92
2018-05-12T21:52:08.945Z,78.33
2018-05-12T21:54:36.963Z,77.80
2018-05-12T21:57:04.946Z,77.58
2018-05-12T21:59:32.859Z,78.59
2018-05-12T22:02:00.768Z,78.35
2018-05-12T22:04:28.733Z,78.72
2018-05-12T22:06:56.965Z,77.69
2018-05-12T22:09:24.903Z,77.69
2018-05-12T22:11:52.827Z,78.49
2018-05-12T22:14:20.759Z,79.01
2018-05-12T22:16:48.688Z,78.74
2018-05-12T22:19:16.618Z,79.59
2018-05-12T22:21:44.542Z,79.05
2018-05-12T22:24:12.497Z,79.42
2018-05-12T22:26:40.420Z,79.24
2018-05-12T22:29:08.347Z,79.59
2018-05-12T22:31:36.308Z,80.25
2018-05-12T22:34:04.220Z,80.40
2018-05-12T22:36:32.335Z,80.17
2018-05-12T22:39:00.910Z,79.56
2018-05-12T22:41:30.619Z,79.62
2018-05-12T22:43:58.730Z,79.72
2018-05-12T22:46:26.681Z,79.62
2018-05-12T22:48:54.668Z,78.93
2018-05-12T22:51:22.592Z,78.60
2018-05-12T22:53:50.530Z,77.72
2018-05-12T22:56:18.966Z,76.65
2018-05-12T22:58:46.908Z,77.48
2018-05-12T23:01:14.824Z,77.36
2018-05-12T23:03:42.797Z,75.92
2018-05-12T23:06:10.839Z,76.99
2018-05-12T23:08:38.891Z,76.36
2018-05-12T23:11:06.837Z,76.64
2018-05-12T23:13:34.785Z,75.47
2018-05-12T23:16:02.799Z,74.89
2018-05-12T23:18:30.756Z,76.08
2018-05-12T23:20:58.679Z,75.25
2018-05-12T23:23:26.578Z,75.79
2018-05-12T23:25:54.817Z,75.12
2018-05-12T23:28:23.296Z,74.13
2018-05-12T23:30:52.245Z,75.31
2018-05-12T23:33:20.227Z,74.94
2018-05-12T23:35:48.238Z,75.54
2018-05-12T23:38:16.222Z,75.28
2018-05-12T23:40:44.227Z,75.11
2018-05-12T23:43:12.160Z,76.19
2018-05-12T23:45:40.146Z,75.32
2018-05-12T23:48:08.090Z,74.98
2018-05-12T23:50:36.006Z,76.04
2018-05-12T23:53:03.997Z,75.95
2018-05-12T23:55:31.923Z,76.51
2018-05-12T23:57:59.835Z,74.86
